Time;durP1;ratioP1;P1;durP2;ratioP2;P2;SDS_P1;SDS_P2;PMS_P1;PMS_P2;Temp;Humidity;BMP_temperature;BMP_pressure;BME280_temperature;BME280_humidity;BME280_pressure;Samples;Min_cycle;Max_cycle;Signal;HPM_P1;HPM_P2
2021/08/12 00:00:05;;;;;;;5.90;4.50;;;;;;;19.95;60.32;100331.80;1725085;82;21007;-70
2021/08/12 00:02:32;;;;;;;5.30;4.27;;;;;;;19.92;60.14;100337.30;1731870;81;20959;-69
2021/08/12 00:04:59;;;;;;;7.77;4.93;;;;;;;19.89;60.04;100331.95;1728383;81;21101;-70
2021/08/12 00:07:26;;;;;;;6.97;5.20;;;;;;;19.88;60.07;100335.01;1759509;79;21076;-69
2021/08/12 00:09:54;;;;;;;6.97;4.60;;;;;;;19.85;59.90;100332.37;1741651;80;21053;-70
2021/08/12 00:12:22;;;;;;;6.73;4.60;;;;;;;19.81;60.06;100330.09;1712214;81;21051;-67
2021/08/12 00:14:49;;;;;;;7.23;4.90;;;;;;;19.79;59.88;100325.55;1734032;81;21042;-67
2021/08/12 00:17:16;;;;;;;5.60;4.30;;;;;;;19.76;59.99;100322.13;1734584;81;21140;-68
2021/08/12 00:19:43;;;;;;;5.20;4.13;;;;;;;19.74;60.10;100329.77;1731685;82;21504;-69
2021/08/12 00:22:10;;;;;;;6.50;4.23;;;;;;;19.70;60.20;100327.48;1736409;81;21494;-68
2021/08/12 00:24:36;;;;;;;6.50;4.60;;;;;;;19.69;60.32;100332.67;1738406;81;21569;-68
2021/08/12 00:27:04;;;;;;;7.30;4.40;;;;;;;19.64;60.59;100328.23;1730267;81;21095;-68
2021/08/12 00:29:32;;;;;;;6.30;4.17;;;;;;;19.62;60.48;100328.28;1734209;81;21139;-69
2021/08/12 00:31:59;;;;;;;6.60;4.40;;;;;;;19.60;60.58;100321.03;1745860;80;21046;-68
2021/08/12 00:34:26;;;;;;;5.77;4.40;;;;;;;19.58;60.97;100320.57;1714550;81;21051;-69
2021/08/12 00:36:53;;;;;;;6.20;4.80;;;;;;;19.56;61.25;100322.80;1739891;81;21067;-68
2021/08/12 00:39:20;;;;;;;5.50;4.50;;;;;;;19.54;61.43;100326.38;1737428;81;21044;-68
2021/08/12 00:41:47;;;;;;;6.17;4.30;;;;;;;19.51;61.73;100325.09;1731138;81;21889;-68
2021/08/12 00:44:15;;;;;;;6.37;4.43;;;;;;;19.50;62.07;100326.80;1774688;79;21038;-68
2021/08/12 00:46:42;;;;;;;6.77;4.33;;;;;;;19.48;62.34;100329.84;1792622;78;21927;-68
2021/08/12 00:49:10;;;;;;;6.10;4.43;;;;;;;19.44;62.97;100325.59;1802550;78;22077;-68
2021/08/12 00:51:39;;;;;;;6.17;4.57;;;;;;;19.41;63.30;100330.86;1797980;78;21082;-68
2021/08/12 00:54:06;;;;;;;6.50;4.37;;;;;;;19.36;63.42;100338.61;1788419;78;21183;-68
2021/08/12 00:56:32;;;;;;;6.07;4.63;;;;;;;19.32;63.48;100339.02;1792029;78;21078;-69
2021/08/12 00:58:59;;;;;;;5.97;4.53;;;;;;;19.29;63.86;100339.66;1795619;78;21030;-69
2021/08/12 01:01:27;;;;;;;7.53;4.97;;;;;;;19.21;63.99;100342.59;1796017;78;21107;-68
2021/08/12 01:03:58;;;;;;;7.67;4.63;;;;;;;19.13;64.14;100349.39;1802249;78;21015;-69
2021/08/12 01:06:31;;;;;;;6.78;4.72;;;;;;;19.05;64.68;100350.17;1812723;78;21116;-69
2021/08/12 01:09:28;;;;;;;6.53;4.50;;;;;;;18.93;64.97;100350.26;1789038;78;21050;-71
2021/08/12 01:11:58;;;;;;;6.97;5.10;;;;;;;18.80;65.27;100343.09;1797420;78;20995;-67
2021/08/12 01:14:56;;;;;;;6.67;5.10;;;;;;;18.68;65.87;100348.28;1777452;79;20995;-71
2021/08/12 01:17:26;;;;;;;7.17;5.50;;;;;;;18.56;66.35;100357.03;1799119;78;21101;-69
2021/08/12 01:20:22;;;;;;;6.63;5.20;;;;;;;18.43;66.54;100360.10;1800180;78;22132;-67
2021/08/12 01:22:49;;;;;;;7.57;5.27;;;;;;;18.35;66.99;100364.91;1793054;78;20943;-66
2021/08/12 01:25:29;;;;;;;8.10;5.27;;;;;;;18.26;67.62;100375.72;1795038;78;21058;-67
2021/08/12 01:28:01;;;;;;;8.63;5.60;;;;;;;18.22;67.85;100372.58;1795765;78;21645;-66
2021/08/12 01:30:30;;;;;;;;;;;;;;;18.15;68.19;100368.19;1794706;78;21110;-67
2021/08/12 01:33:02;;;;;;;7.90;5.30;;;;;;;18.10;68.74;100371.84;1795179;78;21123;-66
2021/08/12 01:35:30;;;;;;;7.73;5.60;;;;;;;18.03;69.09;100384.45;1809818;78;21482;-67
2021/08/12 01:38:03;;;;;;;6.57;5.10;;;;;;;17.99;69.40;100387.51;1799492;78;21118;-67
2021/08/12 01:40:41;;;;;;;7.17;5.20;;;;;;;17.96;69.59;100381.38;1775794;78;21138;-68
2021/08/12 01:43:18;;;;;;;6.70;5.73;;;;;;;17.93;69.96;100375.27;1789450;78;21074;-67
2021/08/12 01:45:55;;;;;;;8.07;5.57;;;;;;;17.91;70.06;100384.78;1800445;78;21903;-67
2021/08/12 01:48:22;;;;;;;7.03;5.37;;;;;;;17.88;70.29;100382.70;1783894;78;21022;-68
2021/08/12 01:50:51;;;;;;;9.07;5.67;;;;;;;17.84;70.46;100388.48;1802247;78;21009;-68
2021/08/12 01:53:20;;;;;;;6.97;5.20;;;;;;;17.83;70.73;100389.02;1781201;78;21053;-68
2021/08/12 01:55:48;;;;;;;6.10;5.37;;;;;;;17.80;70.86;100380.99;1792564;78;21039;-67
2021/08/12 01:58:16;;;;;;;7.57;5.40;;;;;;;17.80;71.01;100382.34;1792384;78;21091;-67
2021/08/12 02:00:51;;;;;;;6.87;5.27;;;;;;;17.75;71.95;100377.03;1800303;78;21235;-67
2021/08/12 02:03:19;;;;;;;7.17;5.43;;;;;;;17.75;71.95;100377.03;1793282;78;21101;-67
2021/08/12 02:05:49;;;;;;;7.80;5.70;;;;;;;17.76;71.84;100377.82;1764163;80;21108;-68
2021/08/12 02:08:19;;;;;;;7.40;6.00;;;;;;;17.76;71.98;100383.22;1735458;80;21012;-67
2021/08/12 02:10:50;;;;;;;9.03;6.20;;;;;;;17.72;72.02;100386.30;1760914;80;21119;-68
2021/08/12 02:13:18;;;;;;;8.07;5.73;;;;;;;17.72;72.02;100386.30;1754749;81;21004;-67
2021/08/12 02:15:45;;;;;;;8.57;5.83;;;;;;;17.65;72.34;100384.04;1751664;80;21094;-68
2021/08/12 02:18:12;;;;;;;7.63;5.90;;;;;;;17.64;72.20;100385.72;1743108;80;21094;-66
2021/08/12 02:20:41;;;;;;;7.53;6.10;;;;;;;17.64;72.20;100385.72;1743951;80;21043;-68
2021/08/12 02:23:31;;;;;;;7.57;6.20;;;;;;;17.64;72.66;100389.20;1746489;80;21789;-67
2021/08/12 02:26:11;;;;;;;8.57;5.77;;;;;;;17.63;72.80;100397.05;1767799;80;21733;-67
2021/08/12 02:28:39;;;;;;;7.40;5.58;;;;;;;17.61;72.89;100397.13;1750726;80;21023;-68
2021/08/12 02:31:06;;;;;;;6.73;5.63;;;;;;;17.61;73.14;100403.88;1760717;79;21017;-67
2021/08/12 02:33:36;;;;;;;6.47;5.77;;;;;;;17.58;73.35;100407.43;1745605;80;21087;-69
2021/08/12 02:36:06;;;;;;;6.80;5.70;;;;;;;17.54;73.63;100409.72;1795876;78;21554;-68
2021/08/12 02:38:35;;;;;;;7.10;5.70;;;;;;;17.50;73.73;100409.50;1796786;78;21024;-66
2021/08/12 02:41:01;;;;;;;6.50;5.60;;;;;;;17.41;74.40;100422.72;1805983;78;21027;-69
2021/08/12 02:43:30;;;;;;;6.97;5.93;;;;;;;17.41;74.40;100422.72;1790295;79;21039;-67
2021/08/12 02:45:58;;;;;;;7.00;5.83;;;;;;;17.35;74.43;100417.98;1734070;81;21082;-67
2021/08/12 02:48:26;;;;;;;6.97;5.67;;;;;;;17.30;74.64;100419.44;1756555;80;21177;-67
2021/08/12 02:50:53;;;;;;;6.77;5.60;;;;;;;17.26;74.90;100421.16;1730704;81;21651;-67
2021/08/12 02:53:20;;;;;;;7.70;6.33;;;;;;;17.22;75.11;100422.88;1728509;81;21580;-68
2021/08/12 02:55:47;;;;;;;7.43;6.20;;;;;;;17.18;75.46;100427.29;1691324;82;21736;-66
2021/08/12 02:58:14;;;;;;;8.17;6.17;;;;;;;17.18;75.46;100427.29;1734984;81;21086;-66
2021/08/12 03:00:42;;;;;;;7.00;6.10;;;;;;;17.17;75.62;100428.38;1727756;82;21729;-67
2021/08/12 03:03:10;;;;;;;7.93;6.60;;;;;;;17.15;75.72;100431.94;1716873;80;21799;-66
2021/08/12 03:05:37;;;;;;;7.40;5.93;;;;;;;17.13;75.71;100436.84;1797550;78;21713;-66
2021/08/12 03:08:04;;;;;;;7.43;6.07;;;;;;;17.10;75.93;100437.68;1787664;78;21675;-67
2021/08/12 03:10:31;;;;;;;7.63;5.93;;;;;;;17.05;75.98;100436.45;1803861;78;20994;-67
2021/08/12 03:12:59;;;;;;;8.37;6.43;;;;;;;17.05;76.06;100432.41;1786028;78;21709;-67
2021/08/12 03:15:26;;;;;;;8.20;7.07;;;;;;;17.03;76.19;100437.30;1778849;79;21677;-68
2021/08/12 03:17:53;;;;;;;9.30;7.03;;;;;;;16.99;76.32;100439.02;1795731;78;21679;-67
2021/08/12 03:20:21;;;;;;;6.90;5.93;;;;;;;16.96;76.49;100430.73;1802889;79;21681;-67
2021/08/12 03:22:48;;;;;;;7.43;6.40;;;;;;;16.94;76.75;100434.27;1726448;79;21691;-68
2021/08/12 03:25:15;;;;;;;7.73;6.50;;;;;;;16.93;77.02;100437.52;1819337;78;21682;-68
2021/08/12 03:27:43;;;;;;;8.83;6.70;;;;;;;16.92;77.27;100442.67;1782295;79;21685;-68
2021/08/12 03:30:12;;;;;;;7.83;7.00;;;;;;;16.90;77.31;100444.86;1798075;78;21710;-66
2021/08/12 03:32:39;;;;;;;9.07;7.20;;;;;;;16.90;77.53;100443.52;1795109;79;21758;-67
2021/08/12 03:35:08;;;;;;;8.83;6.90;;;;;;;16.88;77.58;100443.04;1786891;78;21680;-67
2021/08/12 03:37:34;;;;;;;9.07;7.70;;;;;;;16.88;77.60;100451.13;1792945;78;21665;-68
2021/08/12 03:40:01;;;;;;;9.97;7.40;;;;;;;16.88;77.60;100440.34;1808454;78;21687;-67
2021/08/12 03:42:27;;;;;;;9.40;6.80;;;;;;;16.91;77.67;100448.36;1784352;79;21657;-68
2021/08/12 03:44:54;;;;;;;8.80;7.03;;;;;;;16.93;77.73;100446.17;1791734;78;21750;-68
2021/08/12 03:47:20;;;;;;;7.80;7.00;;;;;;;16.95;77.64;100455.56;1794460;78;21736;-68
2021/08/12 03:49:47;;;;;;;7.80;7.00;;;;;;;16.94;77.63;100451.25;1756329;79;21662;-66
2021/08/12 03:52:13;;;;;;;8.03;6.80;;;;;;;16.93;77.84;100444.27;1791217;79;21065;-67
2021/08/12 03:54:40;;;;;;;8.67;7.00;;;;;;;16.93;77.84;100444.27;1802436;78;21004;-68
2021/08/12 03:57:07;;;;;;;10.27;7.17;;;;;;;16.95;77.62;100456.91;1793565;78;21673;-67
2021/08/12 03:59:34;;;;;;;11.67;7.30;;;;;;;16.99;77.38;100460.59;1729550;80;22252;-67
2021/08/12 04:02:03;;;;;;;8.43;7.10;;;;;;;17.01;77.35;100455.70;1751192;80;21124;-67
2021/08/12 04:04:29;;;;;;;8.97;6.73;;;;;;;17.03;77.43;100457.53;1755639;80;21570;-68
2021/08/12 04:06:56;;;;;;;8.33;6.73;;;;;;;17.03;77.43;100457.53;1753163;80;21020;-67
2021/08/12 04:09:23;;;;;;;8.73;7.10;;;;;;;17.04;77.34;100460.47;1757280;80;21735;-67
2021/08/12 04:11:49;;;;;;;8.97;7.60;;;;;;;17.08;77.50;100466.09;1755089;80;21036;-67
2021/08/12 04:14:16;;;;;;;8.50;7.07;;;;;;;17.14;77.59;100466.76;1708162;82;22256;-68
2021/08/12 04:16:43;;;;;;;8.20;6.97;;;;;;;17.18;77.76;100463.17;1722319;81;21119;-67
2021/08/12 04:19:12;;;;;;;9.40;6.57;;;;;;;17.29;77.46;100473.19;1727449;81;21066;-67
2021/08/12 04:21:38;;;;;;;8.33;6.83;;;;;;;17.37;77.25;100479.20;1735874;81;21054;-66
2021/08/12 04:24:05;;;;;;;7.40;6.60;;;;;;;17.42;76.80;100484.50;1730173;81;21086;-68
2021/08/12 04:26:33;;;;;;;10.57;6.83;;;;;;;17.47;76.42;100492.50;1739458;81;21235;-68
2021/08/12 04:29:00;;;;;;;9.57;6.60;;;;;;;17.51;76.04;100492.69;1724524;81;21075;-68
2021/08/12 04:31:27;;;;;;;8.33;6.50;;;;;;;17.56;75.72;100493.91;1731963;81;21583;-68
2021/08/12 04:33:54;;;;;;;7.07;5.90;;;;;;;17.61;75.29;100491.66;1726667;81;21052;-68
2021/08/12 04:36:20;;;;;;;8.37;6.40;;;;;;;17.66;74.78;100492.31;1730786;82;21039;-68
2021/08/12 04:38:47;;;;;;;7.70;6.37;;;;;;;17.74;74.79;100493.51;1723731;81;21152;-69
2021/08/12 04:41:15;;;;;;;8.53;5.97;;;;;;;17.83;74.48;100493.59;1735026;81;21071;-68
2021/08/12 04:43:42;;;;;;;9.70;6.30;;;;;;;17.92;73.69;100494.45;1729100;81;21044;-69
2021/08/12 04:46:09;;;;;;;7.63;6.10;;;;;;;18.00;73.20;100489.67;1731297;82;21043;-73
2021/08/12 04:48:36;;;;;;;8.33;5.73;;;;;;;18.09;73.15;100492.41;1735934;81;21049;-72
2021/08/12 04:51:03;;;;;;;8.23;5.77;;;;;;;18.22;72.63;100509.11;1731162;81;21099;-73
2021/08/12 04:53:29;;;;;;;6.90;5.87;;;;;;;18.31;71.22;100505.91;1731603;81;21032;-74
2021/08/12 04:55:56;;;;;;;8.23;6.20;;;;;;;18.38;70.43;100494.64;1712890;82;21040;-73
2021/08/12 04:58:23;;;;;;;8.70;5.93;;;;;;;18.45;69.60;100491.73;1732263;81;21165;-72
2021/08/12 05:00:51;;;;;;;8.00;5.87;;;;;;;18.54;69.63;100496.39;1726936;81;21181;-72
2021/08/12 05:03:18;;;;;;;7.07;5.67;;;;;;;18.61;69.51;100496.18;1729370;81;21487;-72
2021/08/12 05:05:46;;;;;;;8.83;5.70;;;;;;;18.65;69.04;100501.77;1728967;81;21045;-73
2021/08/12 05:08:13;;;;;;;9.10;5.57;;;;;;;18.70;69.03;100500.28;1721985;81;21547;-72
2021/08/12 05:10:45;;;;;;;8.63;5.60;;;;;;;18.76;68.17;100499.06;1731449;81;21069;-69
2021/08/12 05:13:12;;;;;;;7.27;5.50;;;;;;;18.83;68.10;100502.11;1730591;81;21594;-70
2021/08/12 05:15:40;;;;;;;7.30;5.57;;;;;;;18.91;68.27;100495.91;1727260;81;21223;-73
2021/08/12 05:18:07;;;;;;;7.83;5.33;;;;;;;19.03;68.14;100504.00;1723265;81;21508;-70
2021/08/12 05:20:34;;;;;;;7.57;5.50;;;;;;;19.11;67.50;100504.56;1729750;81;21063;-71
2021/08/12 05:23:00;;;;;;;8.27;5.37;;;;;;;19.18;66.87;100508.42;1735820;81;21040;-70
2021/08/12 05:25:27;;;;;;;7.43;5.33;;;;;;;19.25;66.67;100512.02;1727490;81;21614;-71
2021/08/12 05:27:53;;;;;;;8.90;5.50;;;;;;;19.31;66.04;100510.72;1729758;81;21118;-70
2021/08/12 05:30:21;;;;;;;8.73;4.80;;;;;;;19.37;65.77;100509.46;1724959;81;21082;-69
2021/08/12 05:32:49;;;;;;;7.03;4.90;;;;;;;19.42;65.46;100503.11;1735665;81;21211;-71
2021/08/12 05:35:17;;;;;;;6.63;5.00;;;;;;;19.47;65.30;100502.15;1726051;81;20997;-72
2021/08/12 05:37:46;;;;;;;7.67;4.77;;;;;;;19.52;65.30;100493.88;1730996;81;21457;-71
2021/08/12 05:40:13;;;;;;;6.47;4.80;;;;;;;19.59;64.64;100495.55;1728643;81;21518;-71
2021/08/12 05:42:40;;;;;;;7.30;5.20;;;;;;;19.60;63.80;100507.41;1733644;81;21511;-72
2021/08/12 05:45:07;;;;;;;7.57;5.13;;;;;;;19.62;63.53;100492.20;1724091;81;21132;-71
2021/08/12 05:47:35;;;;;;;6.43;4.77;;;;;;;19.68;63.55;100501.23;1708808;81;21005;-74
2021/08/12 05:50:02;;;;;;;6.60;4.50;;;;;;;19.76;63.27;100492.06;1730713;81;21059;-70
2021/08/12 05:52:31;;;;;;;8.53;4.97;;;;;;;19.84;63.00;100485.82;1727632;81;21648;-68
2021/08/12 05:54:58;;;;;;;7.17;4.53;;;;;;;19.95;62.16;100499.86;1711786;82;21534;-71
2021/08/12 05:57:25;;;;;;;9.83;4.93;;;;;;;20.01;61.38;100492.59;1742956;81;21051;-70
2021/08/12 05:59:52;;;;;;;7.27;4.33;;;;;;;20.07;60.43;100490.48;1729274;81;21083;-69
2021/08/12 06:02:19;;;;;;;6.57;4.33;;;;;;;20.13;61.06;100489.20;1730109;81;21058;-80
2021/08/12 06:04:48;;;;;;;6.63;4.00;;;;;;;20.24;61.04;100493.75;1735117;81;21141;-67
2021/08/12 06:07:15;;;;;;;6.93;4.23;;;;;;;20.36;60.31;100502.78;1767932;80;21034;-69
2021/08/12 06:09:43;;;;;;;6.47;4.43;;;;;;;20.47;60.03;100514.66;1795193;78;20972;-70
2021/08/12 06:12:11;;;;;;;8.27;4.03;;;;;;;20.55;58.34;100502.43;1798629;78;21043;-68
2021/08/12 06:14:41;;;;;;;7.17;4.30;;;;;;;20.59;58.23;100506.64;1788608;78;21051;-68
2021/08/12 06:17:08;;;;;;;7.00;3.80;;;;;;;20.61;57.72;100498.98;1794255;78;21150;-69
2021/08/12 06:19:37;;;;;;;6.53;3.80;;;;;;;20.65;57.67;100506.70;1787823;79;21785;-69
2021/08/12 06:22:06;;;;;;;6.00;3.70;;;;;;;20.69;57.39;100506.28;1797009;78;21093;-69
2021/08/12 06:24:33;;;;;;;6.10;3.73;;;;;;;20.73;57.58;100505.89;1799047;78;20999;-70
2021/08/12 06:27:01;;;;;;;7.67;3.27;;;;;;;20.79;56.98;100516.77;1796411;78;21648;-69
2021/08/12 06:29:28;;;;;;;5.20;3.33;;;;;;;20.87;56.70;100521.16;1789551;78;21203;-71
2021/08/12 06:31:55;;;;;;;5.37;3.50;;;;;;;20.91;55.72;100518.80;1789433;78;21058;-71
2021/08/12 06:34:22;;;;;;;6.07;3.40;;;;;;;20.95;55.14;100518.94;1786940;78;21143;-71
2021/08/12 06:36:50;;;;;;;7.17;3.43;;;;;;;20.99;55.21;100516.62;1790288;78;21072;-72
2021/08/12 06:39:17;;;;;;;5.20;3.50;;;;;;;21.05;55.51;100519.92;1799652;78;21035;-72
2021/08/12 06:41:43;;;;;;;6.00;3.70;;;;;;;;;;1792644;78;21442;-70
2021/08/12 06:44:11;;;;;;;6.97;3.70;;;;;;;21.21;54.16;100533.17;1802882;78;21512;-68
2021/08/12 06:46:40;;;;;;;5.20;3.23;;;;;;;21.24;53.42;100528.44;1793916;78;21066;-68
2021/08/12 06:49:09;;;;;;;5.00;2.80;;;;;;;21.29;53.97;100556.78;1815095;78;21007;-70
2021/08/12 06:51:38;;;;;;;4.60;3.07;;;;;;;21.37;52.53;100523.12;1790803;78;20988;-69
2021/08/12 06:54:06;;;;;;;8.20;3.23;;;;;;;21.39;52.47;100519.49;1796354;78;21312;-70
2021/08/12 06:56:33;;;;;;;7.60;3.70;;;;;;;21.43;52.84;100521.80;1762165;79;21518;-70
2021/08/12 06:59:00;;;;;;;5.53;3.20;;;;;;;21.49;52.93;100534.07;1797730;78;21034;-72
2021/08/12 07:01:28;;;;;;;6.20;3.20;;;;;;;21.53;52.04;100520.05;1800460;78;21058;-71
2021/08/12 07:03:58;;;;;;;7.37;3.40;;;;;;;21.58;52.33;100532.63;1803853;78;21053;-70
2021/08/12 07:06:25;;;;;;;7.13;3.17;;;;;;;21.62;51.32;100538.45;1788785;78;21126;-70
2021/08/12 07:08:54;;;;;;;5.03;3.20;;;;;;;21.61;51.26;100538.20;1786524;79;21073;-72
2021/08/12 07:11:23;;;;;;;5.37;3.43;;;;;;;21.61;51.68;100537.41;1786599;78;21020;-71
2021/08/12 07:13:51;;;;;;;6.50;3.53;;;;;;;21.63;51.45;100533.80;1792000;78;21106;-69
2021/08/12 07:16:17;;;;;;;5.90;3.40;;;;;;;21.68;51.55;100536.30;1765127;78;21518;-69
2021/08/12 07:18:48;;;;;;;4.83;3.03;;;;;;;21.73;50.63;100527.95;1755855;80;21030;-71
2021/08/12 07:21:16;;;;;;;6.73;3.23;;;;;;;21.82;51.29;100533.34;1769669;80;21076;-70
2021/08/12 07:23:46;;;;;;;4.43;2.97;;;;;;;21.90;51.17;100529.16;1765492;79;21049;-69
2021/08/12 07:26:16;;;;;;;5.03;3.27;;;;;;;21.99;50.82;100536.69;1711438;82;21035;-69
2021/08/12 07:28:44;;;;;;;5.03;3.13;;;;;;;22.08;50.21;100536.61;1753657;80;21146;-69
2021/08/12 07:31:13;;;;;;;6.40;3.20;;;;;;;22.16;49.37;100545.27;1724620;82;21770;-74
2021/08/12 07:33:40;;;;;;;7.00;3.13;;;;;;;22.15;48.96;100545.05;1748021;80;21073;-73
2021/08/12 07:36:07;;;;;;;7.87;3.30;;;;;;;22.14;49.27;100541.25;1752144;80;21054;-70
2021/08/12 07:38:34;;;;;;;5.90;3.20;;;;;;;22.16;48.61;100539.83;1747900;80;21030;-71
2021/08/12 07:41:01;;;;;;;5.10;3.17;;;;;;;22.20;48.42;100541.30;1743536;80;21073;-72
2021/08/12 07:43:28;;;;;;;4.20;3.07;;;;;;;22.24;48.86;100545.77;1744619;80;21090;-70
2021/08/12 07:45:54;;;;;;;5.50;3.60;;;;;;;22.25;48.62;100553.35;1732417;80;21074;-73
2021/08/12 07:48:21;;;;;;;7.60;3.63;;;;;;;22.24;48.81;100549.02;1742073;82;21538;-70
2021/08/12 07:50:48;;;;;;;10.97;3.33;;;;;;;22.23;49.27;100548.23;1766369;80;21014;-72
2021/08/12 07:53:15;;;;;;;6.63;3.30;;;;;;;22.29;48.52;100548.03;1737040;80;21289;-69
2021/08/12 07:55:43;;;;;;;6.57;3.40;;;;;;;22.35;48.78;100550.20;1722819;80;22179;-69
2021/08/12 07:58:09;;;;;;;4.47;2.77;;;;;;;22.39;49.22;100553.05;1741869;80;21105;-69
2021/08/12 08:00:38;;;;;;;4.40;2.70;;;;;;;22.47;48.58;100561.12;1739025;80;21024;-71
2021/08/12 08:03:06;;;;;;;5.77;3.03;;;;;;;22.56;48.96;100558.86;1739195;80;21590;-69
2021/08/12 08:05:34;;;;;;;5.93;3.03;;;;;;;22.52;48.30;100556.02;1765293;80;21047;-71
2021/08/12 08:08:03;;;;;;;4.47;2.87;;;;;;;22.42;48.43;100559.18;1730551;82;21158;-70
2021/08/12 08:10:30;;;;;;;5.17;2.80;;;;;;;22.40;47.89;100558.70;1732499;81;21594;-71
2021/08/12 08:12:58;;;;;;;5.93;2.90;;;;;;;22.44;48.34;100563.16;1731498;82;21079;-72
2021/08/12 08:15:25;;;;;;;7.20;2.80;;;;;;;22.55;47.52;100566.80;1732346;81;21032;-70
2021/08/12 08:17:51;;;;;;;6.80;3.30;;;;;;;22.60;47.32;100569.30;1799470;77;21021;-74
2021/08/12 08:20:20;;;;;;;5.87;2.90;;;;;;;22.65;46.94;100568.52;1778692;78;21350;-75
2021/08/12 08:22:48;;;;;;;4.13;2.60;;;;;;;22.72;47.60;100561.16;1790058;78;21594;-72
2021/08/12 08:25:15;;;;;;;5.67;3.20;;;;;;;22.81;47.09;100567.87;1792613;78;21646;-70
2021/08/12 08:27:42;;;;;;;5.00;2.80;;;;;;;22.92;47.12;100568.42;1794697;78;21018;-73
2021/08/12 08:30:11;;;;;;;9.03;3.37;;;;;;;23.04;46.99;100569.04;1799020;78;20980;-74
2021/08/12 08:32:38;;;;;;;8.77;2.80;;;;;;;23.16;46.78;100574.49;1798386;78;21074;-73
2021/08/12 08:35:05;;;;;;;6.23;2.90;;;;;;;23.22;45.03;100576.97;1793055;78;21138;-74
2021/08/12 08:37:32;;;;;;;6.43;2.63;;;;;;;23.15;45.51;100569.37;1792241;78;21054;-71
2021/08/12 08:39:59;;;;;;;5.20;2.70;;;;;;;23.16;45.52;100577.22;1750019;80;21063;-74
2021/08/12 08:42:25;;;;;;;5.63;2.93;;;;;;;23.20;45.97;100566.42;1795829;78;20999;-72
2021/08/12 08:44:54;;;;;;;4.67;2.40;;;;;;;23.29;45.77;100567.08;1791287;78;21058;-74
2021/08/12 08:47:20;;;;;;;6.07;2.63;;;;;;;23.41;44.89;100574.45;1798788;78;21010;-71
2021/08/12 08:49:47;;;;;;;5.07;2.70;;;;;;;23.50;44.68;100570.25;1778159;78;20996;-73
2021/08/12 08:52:14;;;;;;;5.30;2.40;;;;;;;23.58;44.89;100577.48;1771012;78;21027;-72
2021/08/12 08:54:41;;;;;;;5.33;2.40;;;;;;;23.63;43.45;100578.63;1745504;80;21087;-72
2021/08/12 08:57:08;;;;;;;3.87;2.50;;;;;;;23.64;43.38;100582.36;1733756;81;21121;-71
2021/08/12 08:59:36;;;;;;;3.33;2.10;;;;;;;23.69;43.28;100567.73;1725065;81;21135;-71
2021/08/12 09:02:08;;;;;;;4.30;2.50;;;;;;;23.78;43.73;100581.22;1725907;81;21113;-72
2021/08/12 09:04:35;;;;;;;4.30;2.33;;;;;;;23.85;43.46;100569.93;1724187;81;21197;-74
2021/08/12 09:07:09;;;;;;;5.03;2.37;;;;;;;23.90;43.72;100568.13;1727251;81;21043;-72
2021/08/12 09:09:37;;;;;;;7.23;2.40;;;;;;;23.95;43.22;100571.38;1731078;82;21128;-72
2021/08/12 09:12:05;;;;;;;4.53;2.60;;;;;;;23.99;42.68;100580.48;1733124;81;21578;-71
2021/08/12 09:14:40;;;;;;;3.50;2.10;;;;;;;24.04;42.56;100567.14;1726574;81;21047;-72
2021/08/12 09:17:25;;;;;;;3.53;2.50;;;;;;;24.11;42.73;100561.88;1725625;81;21108;-71
2021/08/12 09:20:18;;;;;;;6.23;2.50;;;;;;;24.19;43.39;100575.17;1723032;81;21380;-71
2021/08/12 09:22:50;;;;;;;5.03;2.60;;;;;;;24.19;42.91;100558.80;1719506;81;22254;-73
2021/08/12 09:25:36;;;;;;;4.17;2.53;;;;;;;24.30;43.33;100560.64;1755295;80;21035;-71
2021/08/12 09:28:32;;;;;;;5.20;2.67;;;;;;;24.39;42.60;100561.86;1728013;80;21067;-72
2021/08/12 09:31:04;;;;;;;3.63;2.40;;;;;;;24.30;41.63;100566.68;1725351;81;21582;-74
2021/08/12 09:33:43;;;;;;;5.00;2.85;;;;;;;24.14;42.20;100565.85;1730323;80;21685;-72
2021/08/12 09:36:29;;;;;;;5.33;2.70;;;;;;;24.13;42.31;100571.89;1754670;80;21641;-72
2021/08/12 09:39:19;;;;;;;5.60;2.70;;;;;;;24.18;42.23;100562.64;1762111;80;21048;-72
2021/08/12 09:41:50;;;;;;;5.07;2.70;;;;;;;24.28;42.26;100571.69;1769041;79;21090;-74
2021/08/12 09:44:49;;;;;;;4.83;2.70;;;;;;;24.35;41.41;100558.25;1764706;80;21086;-72
2021/08/12 09:47:15;;;;;;;5.97;2.27;;;;;;;24.38;41.19;100564.34;1772823;78;21007;-73
2021/08/12 09:49:52;;;;;;;4.73;2.40;;;;;;;24.39;40.39;100575.52;1772291;79;21117;-70
2021/08/12 09:52:34;;;;;;;3.70;2.33;;;;;;;24.37;41.13;100570.95;1766939;78;21668;-71
2021/08/12 09:55:16;;;;;;;5.00;2.60;;;;;;;24.46;40.87;100561.28;1772804;80;21027;-73
2021/08/12 09:57:45;;;;;;;4.30;2.37;;;;;;;24.56;40.83;100571.11;1771811;78;21110;-72
2021/08/12 10:00:28;;;;;;;5.23;2.47;;;;;;;24.63;40.78;100569.70;1768923;79;21039;-73
2021/08/12 10:02:57;;;;;;;6.23;2.83;;;;;;;24.65;40.45;100564.70;1745318;79;22128;-72
2021/08/12 10:05:24;;;;;;;4.83;2.70;;;;;;;24.69;40.62;100565.56;1772208;78;21114;-72
2021/08/12 10:07:54;;;;;;;7.03;3.20;;;;;;;24.76;40.21;100568.47;1773485;79;21041;-69
2021/08/12 10:10:25;;;;;;;5.50;2.60;;;;;;;24.77;39.79;100570.05;1779735;79;21032;-72
2021/08/12 10:12:57;;;;;;;;;;;;;;;24.79;39.92;100569.14;1772673;80;21608;-72
2021/08/12 10:15:33;;;;;;;5.07;2.93;;;;;;;24.86;39.63;100554.28;1773516;78;20538;-71
2021/08/12 10:18:02;;;;;;;5.67;2.90;;;;;;;24.95;40.35;100550.01;1771353;78;21073;-71
2021/08/12 10:20:34;;;;;;;5.30;3.00;;;;;;;25.04;39.04;100545.94;1771809;78;22013;-69
2021/08/12 10:23:05;;;;;;;6.13;3.70;;;;;;;25.12;38.50;100557.85;1769103;78;21035;-71
2021/08/12 10:25:34;;;;;;;6.70;3.50;;;;;;;25.15;37.71;100548.16;1773161;80;22029;-70
2021/08/12 10:28:05;;;;;;;5.30;3.30;;;;;;;25.09;37.99;100564.58;1772027;78;21128;-72
2021/08/12 10:30:32;;;;;;;5.10;3.10;;;;;;;25.03;37.66;100556.63;1768374;80;21003;-69
2021/08/12 10:33:03;;;;;;;6.00;2.90;;;;;;;25.00;37.28;100560.08;1774304;78;21114;-69
2021/08/12 10:35:31;;;;;;;4.57;2.97;;;;;;;24.95;37.23;100567.19;1783910;78;21085;-69
2021/08/12 10:38:00;;;;;;;6.90;2.97;;;;;;;24.96;36.65;100559.20;1772598;78;21445;-70
2021/08/12 10:40:30;;;;;;;5.47;3.07;;;;;;;25.01;37.07;100560.31;1768505;79;22198;-72
2021/08/12 10:43:00;;;;;;;7.07;2.97;;;;;;;25.10;36.45;100577.08;1774222;78;21173;-70
2021/08/12 10:45:29;;;;;;;6.50;2.97;;;;;;;25.13;35.82;100572.30;1786277;78;21459;-71
2021/08/12 10:47:59;;;;;;;5.00;3.03;;;;;;;25.15;35.04;100570.81;1772223;79;21027;-72
2021/08/12 10:50:31;;;;;;;6.67;3.00;;;;;;;25.14;35.60;100562.95;1765254;78;21506;-70
2021/08/12 10:55:53;;;;;;;4.93;2.70;;;;;;;25.19;35.79;100562.11;1778862;80;20982;-71
2021/08/12 10:58:26;;;;;;;6.13;3.13;;;;;;;25.24;36.26;100557.75;1737557;80;21105;-71
2021/08/12 11:00:58;;;;;;;4.80;3.10;;;;;;;25.30;35.67;100558.82;1741489;79;21101;-72
2021/08/12 11:03:43;;;;;;;5.47;3.17;;;;;;;25.35;35.85;100564.81;1782274;79;21599;-71
2021/08/12 11:06:21;;;;;;;7.50;3.17;;;;;;;25.36;35.10;100562.87;1767554;78;21196;-69
2021/08/12 11:08:59;;;;;;;6.17;3.47;;;;;;;25.31;34.93;100561.22;1768287;79;21624;-72
2021/08/12 11:11:34;;;;;;;5.90;2.93;;;;;;;25.34;35.55;100566.55;1770178;78;21065;-71
2021/08/12 11:14:11;;;;;;;7.57;3.20;;;;;;;25.38;35.72;100563.31;1771551;79;21628;-72
2021/08/12 11:16:49;;;;;;;6.23;2.87;;;;;;;25.42;35.29;100575.91;1774978;78;21649;-71
2021/08/12 11:19:29;;;;;;;6.33;3.07;;;;;;;25.45;34.29;100570.30;1767936;79;21031;-73
2021/08/12 11:21:56;;;;;;;5.17;2.93;;;;;;;25.46;34.59;100566.41;1770962;78;21117;-70
2021/08/12 11:24:29;;;;;;;4.80;2.80;;;;;;;25.46;34.38;100580.87;1772297;78;21134;-73
2021/08/12 11:27:03;;;;;;;8.97;3.00;;;;;;;25.47;34.71;100569.37;1778141;79;21090;-72
2021/08/12 11:29:38;;;;;;;6.20;3.10;;;;;;;25.54;35.17;100569.53;1826618;77;21042;-72
2021/08/12 11:32:10;;;;;;;6.53;3.10;;;;;;;25.61;35.29;100564.20;1819059;77;21134;-73
2021/08/12 11:34:52;;;;;;;5.60;2.70;;;;;;;25.74;35.59;100575.81;1830125;77;21043;-72
2021/08/12 11:37:30;;;;;;;7.30;2.73;;;;;;;25.86;33.77;100574.89;1821602;77;21098;-70
2021/08/12 11:40:09;;;;;;;5.83;3.00;;;;;;;25.86;33.71;100575.67;1829274;77;21642;-73